LIBD/BRI METAR and TAF weather

Enter ICAO airport designator
Station Type Date Time Source
LIBD METAR 2020/09/19 02:50 UTC NOAA

LIBD 190250Z 27007KT CAVOK 22/17 Q1017


Station Type Date Time Source
LIBD Decoded METAR 2020/09/19 02:50 UTC NOAA

Bari / Palese Macchie, Italy (LIBD) 41-08N 016-47E 49M
Sep 18, 2020 - 10:50 PM EDT / 2020.09.19 0250 UTC
Wind: from the W (270 degrees) at 8 MPH (7 KT):0
Visibility: greater than 7 mile(s):0
Temperature: 71 F (22 C)
Dew Point: 62 F (17 C)
Relative Humidity: 73%
Pressure (altimeter): 30.03 in. Hg (1017 hPa)
ob: LIBD 190250Z 27007KT CAVOK 22/17 Q1017
cycle: 3

Station Type Date Time Source
LIBD TAF 2020/09/18 18:21 UTC NOAA

TAF TAF LIBD 181700Z 1818/1918 34010KT 9999 SCT030

Example: see airport list